Terminal Aerodrome Forecast
Issued by NWS Portland, OR

Home | Current Version | Previous Version | Text Only | Print | Product List | Glossary On
Versions: 1 2 3 4 5 6 7 8 9 10 11 12 13 14 15 16
000
FTUS46 KPQR 250520
TAFAST
TAF
KAST 250520Z 2506/2606 32008KT P6SM SCT025
     FM250800 32008KT 6SM BR OVC025
     FM251800 31008KT P6SM SCT015 BKN025
     FM252100 31010KT P6SM SCT025
     FM260400 31006KT P6SM BKN025=

USA.gov is the U.S. government's official web portal to all federal, state and local government web resources and services.